createdAt,value
2022-08-29T00:02:06.249Z,3.95
2022-08-29T00:04:35.987Z,3.53
2022-08-29T00:07:03.499Z,4.20
2022-08-29T00:09:30.819Z,4.78
2022-08-29T00:11:57.957Z,3.70
2022-08-29T00:14:25.301Z,4.50
2022-08-29T00:16:53.004Z,4.75
2022-08-29T00:19:22.026Z,4.15
2022-08-29T00:21:49.237Z,4.90
2022-08-29T00:24:17.381Z,4.03
2022-08-29T00:26:44.551Z,3.80
2022-08-29T00:29:11.768Z,5.82
2022-08-29T00:31:39.432Z,4.72
2022-08-29T00:34:06.693Z,4.88
2022-08-29T00:36:34.374Z,4.22
2022-08-29T00:39:01.662Z,4.32
2022-08-29T00:41:29.439Z,4.90
2022-08-29T00:43:56.736Z,4.13
2022-08-29T00:46:42.486Z,3.90
2022-08-29T00:51:41.600Z,4.55
2022-08-29T00:54:11.999Z,4.97
2022-08-29T00:56:41.543Z,5.40
2022-08-29T00:59:18.750Z,4.75
2022-08-29T01:01:47.304Z,4.35
2022-08-29T01:04:23.913Z,4.95
2022-08-29T01:06:53.232Z,5.18
2022-08-29T01:09:21.187Z,5.68
2022-08-29T01:12:07.665Z,5.50
2022-08-29T01:14:38.529Z,5.72
2022-08-29T01:17:09.005Z,6.22
2022-08-29T01:19:52.992Z,5.85
2022-08-29T01:22:35.239Z,6.10
2022-08-29T01:25:06.390Z,5.13
2022-08-29T01:27:37.307Z,5.35
2022-08-29T01:30:07.658Z,5.07
2022-08-29T01:32:35.077Z,6.47
2022-08-29T01:35:03.019Z,4.90
2022-08-29T01:37:33.653Z,5.97
2022-08-29T01:40:00.977Z,5.47
2022-08-29T01:42:28.886Z,4.90
2022-08-29T01:45:04.160Z,5.20
2022-08-29T01:47:35.576Z,5.22
2022-08-29T01:50:14.232Z,5.20
2022-08-29T01:52:43.010Z,6.57
2022-08-29T01:55:10.753Z,5.55
2022-08-29T01:57:39.746Z,6.20
2022-08-29T02:00:09.963Z,5.32
2022-08-29T02:02:38.577Z,6.32
2022-08-29T02:05:07.910Z,6.88
2022-08-29T02:07:35.249Z,5.78
2022-08-29T02:10:02.879Z,6.57
2022-08-29T02:12:31.976Z,5.97
2022-08-29T02:14:59.986Z,6.65
2022-08-29T02:17:28.350Z,6.35
2022-08-29T02:19:55.567Z,5.40
2022-08-29T02:22:22.890Z,4.95
2022-08-29T02:24:50.175Z,5.70
2022-08-29T02:27:17.369Z,5.88
2022-08-29T02:29:44.706Z,6.53
2022-08-29T02:32:14.451Z,5.70
2022-08-29T02:34:47.506Z,5.68
2022-08-29T02:37:15.818Z,6.28
2022-08-29T02:39:43.219Z,6.88
2022-08-29T02:42:10.422Z,6.28
2022-08-29T02:44:38.485Z,6.07
2022-08-29T02:47:06.133Z,6.25
2022-08-29T02:49:33.441Z,5.93
2022-08-29T02:52:02.774Z,6.50
2022-08-29T02:54:30.043Z,6.15
2022-08-29T02:56:57.514Z,5.82
2022-08-29T02:59:24.581Z,6.43
2022-08-29T03:01:53.867Z,6.68
2022-08-29T03:04:21.085Z,6.80
2022-08-29T03:06:48.412Z,6.93
2022-08-29T03:09:15.681Z,7.57
2022-08-29T03:11:42.832Z,6.18
2022-08-29T03:14:09.943Z,7.88
2022-08-29T03:16:37.368Z,6.75
2022-08-29T03:19:04.466Z,7.10
2022-08-29T03:21:33.631Z,8.38
2022-08-29T03:24:00.898Z,7.97
2022-08-29T03:26:27.976Z,6.07
2022-08-29T03:28:55.089Z,7.32
2022-08-29T03:31:22.668Z,6.95
2022-08-29T03:33:50.170Z,7.80
2022-08-29T03:36:18.483Z,7.85
2022-08-29T03:38:47.704Z,7.60
2022-08-29T03:41:27.380Z,7.53
2022-08-29T03:44:00.323Z,7.25
2022-08-29T03:46:28.469Z,7.03
2022-08-29T03:48:55.750Z,6.28
2022-08-29T03:51:22.842Z,6.18
2022-08-29T03:53:52.394Z,6.93
2022-08-29T03:56:20.893Z,6.25
2022-08-29T03:58:52.906Z,7.68
2022-08-29T04:01:24.746Z,6.57
2022-08-29T04:03:52.625Z,7.35
2022-08-29T04:06:20.494Z,7.07
2022-08-29T04:08:48.014Z,5.82
2022-08-29T04:11:16.776Z,6.63
2022-08-29T04:13:44.084Z,6.70
2022-08-29T04:16:13.362Z,6.90
2022-08-29T04:18:40.989Z,7.40
2022-08-29T04:21:09.317Z,7.40
2022-08-29T04:23:38.521Z,8.05
2022-08-29T04:26:27.159Z,7.22
2022-08-29T04:28:53.747Z,6.65
2022-08-29T04:31:22.360Z,6.35
2022-08-29T04:33:53.292Z,5.80
2022-08-29T04:36:20.460Z,6.47
2022-08-29T04:38:47.586Z,6.80
2022-08-29T04:41:15.131Z,7.45
2022-08-29T04:43:43.268Z,7.72
2022-08-29T04:46:30.150Z,7.28
2022-08-29T05:11:58.856Z,8.50
2022-08-29T05:29:57.128Z,7.57
2022-08-29T05:32:56.800Z,6.20
2022-08-29T05:35:29.607Z,7.50
2022-08-29T05:37:59.397Z,7.05
2022-08-29T05:40:42.385Z,7.30
2022-08-29T05:43:26.496Z,6.68
2022-08-29T05:49:09.144Z,5.85
2022-08-29T05:51:39.596Z,5.75
2022-08-29T05:54:07.961Z,6.35
2022-08-29T05:56:35.547Z,4.53
2022-08-29T05:59:15.301Z,6.00
2022-08-29T06:01:55.831Z,5.68
2022-08-29T06:04:22.948Z,5.00
2022-08-29T06:06:51.179Z,3.83
2022-08-29T06:09:18.557Z,4.18
2022-08-29T06:11:51.043Z,4.82
2022-08-29T06:14:18.677Z,5.35
2022-08-29T06:16:46.513Z,3.83
2022-08-29T06:19:15.414Z,3.92
2022-08-29T06:21:45.979Z,4.32
2022-08-29T06:24:17.269Z,3.17
2022-08-29T06:26:45.861Z,2.85
2022-08-29T06:29:42.860Z,2.67
2022-08-29T06:32:15.122Z,3.55
2022-08-29T06:34:51.792Z,3.30
2022-08-29T06:40:25.972Z,3.17
2022-08-29T06:46:01.758Z,2.70
2022-08-29T06:48:29.776Z,4.03
2022-08-29T06:51:17.603Z,3.42
2022-08-29T06:54:37.879Z,2.78
2022-08-29T06:57:43.489Z,3.00
2022-08-29T07:03:10.917Z,2.60
2022-08-29T07:05:38.389Z,2.45
2022-08-29T07:08:05.831Z,2.65
2022-08-29T07:10:45.558Z,3.35
2022-08-29T07:17:00.493Z,3.25
2022-08-29T07:28:01.157Z,2.85
2022-08-29T07:31:42.504Z,3.08
2022-08-29T07:34:56.155Z,2.78
2022-08-29T07:40:17.099Z,2.80
2022-08-29T07:43:40.641Z,1.60
2022-08-29T07:46:36.657Z,1.75
2022-08-29T07:50:41.572Z,1.52
2022-08-29T07:53:17.992Z,2.08
2022-08-29T08:04:13.102Z,2.45
2022-08-29T08:09:38.707Z,1.40
2022-08-29T08:12:08.406Z,1.83
2022-08-29T08:18:30.119Z,1.60
2022-08-29T08:20:57.600Z,1.48
2022-08-29T08:30:36.049Z,1.50
2022-08-29T08:33:10.280Z,1.10
2022-08-29T08:36:11.969Z,1.23
2022-08-29T09:00:58.857Z,1.42
2022-08-29T09:08:15.480Z,1.20
2022-08-29T09:18:42.821Z,1.42
2022-08-29T09:22:24.755Z,2.30
2022-08-29T09:29:25.437Z,1.63
2022-08-29T09:32:12.421Z,1.25
2022-08-29T09:38:00.529Z,1.27
2022-08-29T09:41:26.668Z,0.90
2022-08-29T09:44:05.448Z,1.15
2022-08-29T09:46:32.837Z,1.38
2022-08-29T09:49:13.214Z,1.00
2022-08-29T09:52:26.038Z,1.00
2022-08-29T10:03:06.756Z,0.95
2022-08-29T10:09:43.553Z,0.60
2022-08-29T10:12:45.803Z,0.95
2022-08-29T10:20:13.195Z,0.80
2022-08-29T10:29:40.241Z,0.40
2022-08-29T10:32:29.021Z,0.70
2022-08-29T10:35:33.293Z,0.65
2022-08-29T10:38:24.230Z,0.95
2022-08-29T10:43:59.847Z,0.50
2022-08-29T10:47:16.839Z,0.80
2022-08-29T11:01:34.971Z,0.70
2022-08-29T11:08:05.913Z,0.57
2022-08-29T11:11:12.484Z,0.60
2022-08-29T11:14:08.350Z,0.60
2022-08-29T11:17:21.775Z,0.50
2022-08-29T11:37:24.955Z,0.75
2022-08-29T11:44:47.860Z,0.77
2022-08-29T11:47:55.128Z,0.38
2022-08-29T11:51:22.004Z,0.70
2022-08-29T11:53:49.996Z,0.90
2022-08-29T11:57:16.174Z,0.80
2022-08-29T11:59:51.969Z,1.30
2022-08-29T12:03:28.744Z,0.63
2022-08-29T12:18:23.585Z,0.63
2022-08-29T12:21:29.849Z,0.70
2022-08-29T12:47:33.710Z,1.02
2022-08-29T13:12:42.540Z,0.60
2022-08-29T13:15:48.137Z,0.52
2022-08-29T13:18:25.032Z,1.40
2022-08-29T13:21:13.970Z,0.50
2022-08-29T13:23:48.577Z,0.70
2022-08-29T13:26:23.992Z,0.50
2022-08-29T13:32:52.583Z,0.50
2022-08-29T13:38:51.182Z,0.67
2022-08-29T13:45:03.893Z,0.30
2022-08-29T13:48:12.760Z,0.93
2022-08-29T13:51:04.743Z,1.05
2022-08-29T13:53:37.216Z,0.57
2022-08-29T13:56:08.614Z,0.43
2022-08-29T13:58:38.347Z,0.60
2022-08-29T14:04:15.266Z,0.52
2022-08-29T14:12:56.731Z,0.50
2022-08-29T14:15:39.571Z,1.15
2022-08-29T14:18:36.804Z,0.73
2022-08-29T14:21:34.774Z,0.50
2022-08-29T14:31:57.866Z,0.55
2022-08-29T14:34:25.230Z,0.75
2022-08-29T14:36:57.932Z,0.30
2022-08-29T14:39:26.506Z,0.60
2022-08-29T14:41:54.990Z,0.38
2022-08-29T14:44:22.446Z,0.63
2022-08-29T14:46:50.538Z,0.28
2022-08-29T14:49:18.610Z,0.50
2022-08-29T14:51:49.223Z,0.60
2022-08-29T14:54:22.256Z,0.45
2022-08-29T14:56:50.495Z,0.30
2022-08-29T15:02:28.529Z,0.65
2022-08-29T15:04:59.271Z,0.30
2022-08-29T15:07:28.862Z,0.40
2022-08-29T15:09:56.302Z,0.50
2022-08-29T15:12:40.209Z,0.30
2022-08-29T15:15:15.125Z,0.35
2022-08-29T15:20:37.351Z,0.45
2022-08-29T15:23:26.270Z,0.57
2022-08-29T15:25:54.010Z,0.35
2022-08-29T15:28:24.402Z,0.30
2022-08-29T15:30:51.786Z,0.35
2022-08-29T15:33:23.644Z,0.47
2022-08-29T15:35:56.622Z,0.43
2022-08-29T15:38:23.977Z,0.30
2022-08-29T15:40:54.234Z,0.60
2022-08-29T15:43:21.980Z,0.40
2022-08-29T15:45:49.617Z,0.32
2022-08-29T15:48:17.510Z,0.40
2022-08-29T15:50:48.708Z,0.30
2022-08-29T15:53:15.989Z,0.40
2022-08-29T15:55:44.506Z,0.40
2022-08-29T15:58:18.114Z,0.90
2022-08-29T16:00:45.763Z,0.38
2022-08-29T16:03:13.432Z,0.40
2022-08-29T16:05:41.297Z,0.50
2022-08-29T16:08:10.029Z,0.30
2022-08-29T16:10:43.940Z,0.20
2022-08-29T16:13:11.934Z,0.63
2022-08-29T16:15:39.384Z,0.57
2022-08-29T16:18:07.362Z,0.25
2022-08-29T16:20:35.492Z,0.40
2022-08-29T16:23:03.873Z,0.50
2022-08-29T16:25:33.188Z,0.43
2022-08-29T16:28:01.253Z,0.80
2022-08-29T16:30:32.063Z,0.50
2022-08-29T16:32:59.496Z,0.57
2022-08-29T16:35:27.003Z,0.90
2022-08-29T16:38:02.247Z,0.60
2022-08-29T16:42:57.139Z,0.50
2022-08-29T16:45:25.108Z,0.45
2022-08-29T16:47:57.244Z,1.20
2022-08-29T16:50:25.148Z,0.40
2022-08-29T16:52:52.651Z,0.60
2022-08-29T16:55:20.406Z,0.60
2022-08-29T16:58:12.029Z,0.63
2022-08-29T17:00:39.798Z,0.50
2022-08-29T17:03:07.378Z,0.88
2022-08-29T17:05:35.094Z,0.80
2022-08-29T17:08:02.245Z,0.60
2022-08-29T17:10:29.473Z,0.93
2022-08-29T17:12:56.691Z,0.57
2022-08-29T17:15:24.187Z,0.60
2022-08-29T17:17:51.433Z,0.70
2022-08-29T17:20:21.882Z,0.80
2022-08-29T17:22:55.272Z,0.70
2022-08-29T17:25:23.572Z,1.17
2022-08-29T17:28:14.254Z,0.90
2022-08-29T17:30:38.812Z,0.65
2022-08-29T17:33:06.128Z,0.75
2022-08-29T17:35:37.857Z,0.90
2022-08-29T17:38:08.542Z,0.73
2022-08-29T17:40:40.776Z,0.75
2022-08-29T17:43:24.614Z,0.80
2022-08-29T17:48:49.845Z,0.98
2022-08-29T17:52:02.357Z,1.25
2022-08-29T17:54:30.398Z,1.52
2022-08-29T17:57:07.254Z,0.80
2022-08-29T18:03:43.174Z,0.82
2022-08-29T18:06:10.476Z,0.65
2022-08-29T18:08:41.584Z,0.90
2022-08-29T18:14:36.586Z,0.70
2022-08-29T18:17:04.097Z,1.00
2022-08-29T18:19:34.527Z,0.70
2022-08-29T18:22:04.542Z,0.90
2022-08-29T18:25:05.950Z,0.50
2022-08-29T18:34:28.503Z,0.90
2022-08-29T19:00:54.420Z,1.27
2022-08-29T19:03:22.156Z,0.70
2022-08-29T19:05:52.228Z,0.70
2022-08-29T19:08:33.607Z,0.73
2022-08-29T19:11:04.335Z,0.73
2022-08-29T19:21:47.789Z,0.82
2022-08-29T19:24:15.555Z,0.90
2022-08-29T19:26:53.060Z,1.15
2022-08-29T19:29:48.870Z,1.15
2022-08-29T19:35:02.074Z,0.80
2022-08-29T19:43:48.043Z,1.00
2022-08-29T19:49:53.967Z,1.10
2022-08-29T19:52:29.179Z,1.20
2022-08-29T19:55:02.178Z,0.95
2022-08-29T19:58:17.727Z,0.60
2022-08-29T20:01:39.163Z,1.25
2022-08-29T20:15:24.965Z,1.15
2022-08-29T20:31:12.501Z,1.00
2022-08-29T20:37:33.297Z,1.00
2022-08-29T20:42:49.886Z,1.13
2022-08-29T20:45:47.218Z,1.17
2022-08-29T21:00:16.135Z,1.00
2022-08-29T21:06:07.871Z,1.08
2022-08-29T21:08:55.505Z,0.90
2022-08-29T21:11:26.925Z,0.73
2022-08-29T21:14:07.819Z,1.10
2022-08-29T21:21:01.466Z,1.05
2022-08-29T21:27:24.502Z,1.00
2022-08-29T21:36:26.640Z,1.00
2022-08-29T21:38:56.779Z,1.70
2022-08-29T21:41:26.573Z,1.25
2022-08-29T21:43:57.536Z,1.52
2022-08-29T21:46:41.506Z,1.20
2022-08-29T21:49:48.945Z,1.00
2022-08-29T21:52:16.204Z,0.80
2022-08-29T21:54:43.622Z,1.38
2022-08-29T22:01:47.341Z,1.20
2022-08-29T22:04:31.379Z,1.27
2022-08-29T22:19:09.132Z,1.02
2022-08-29T22:24:56.580Z,1.10
2022-08-29T22:27:26.293Z,1.13
2022-08-29T22:29:53.901Z,0.88
2022-08-29T22:32:21.237Z,1.02
2022-08-29T22:34:51.264Z,1.10
2022-08-29T22:37:18.791Z,1.50
2022-08-29T22:39:47.039Z,1.10
2022-08-29T22:42:14.583Z,1.40
2022-08-29T22:45:02.654Z,1.10
2022-08-29T22:47:31.631Z,1.40
2022-08-29T22:49:59.168Z,1.30
2022-08-29T22:52:26.929Z,1.30
2022-08-29T22:54:55.241Z,2.70
